createdAt,value
2016-09-13T00:00:50.126Z,19.63
2016-09-13T00:01:50.140Z,19.7
2016-09-13T00:02:50.175Z,19.63
2016-09-13T00:03:50.201Z,19.72
2016-09-13T00:04:50.234Z,19.71
2016-09-13T00:05:50.242Z,19.71
2016-09-13T00:06:49.959Z,19.7
2016-09-13T00:07:50.021Z,19.66
2016-09-13T00:08:50.008Z,19.71
2016-09-13T00:09:50.342Z,19.71
2016-09-13T00:10:50.369Z,19.7
2016-09-13T00:11:50.397Z,19.7
2016-09-13T00:12:50.095Z,19.66
2016-09-13T00:13:50.124Z,19.64
2016-09-13T00:14:50.165Z,19.62
2016-09-13T00:15:50.171Z,19.53
2016-09-13T00:16:50.215Z,19.57
2016-09-13T00:17:50.219Z,19.63
2016-09-13T00:18:49.937Z,19.59
2016-09-13T00:19:50.273Z,19.62
2016-09-13T00:20:50.607Z,19.57
2016-09-13T00:21:50.645Z,19.62
2016-09-13T00:22:50.031Z,19.57
2016-09-13T00:23:50.692Z,19.62
2016-09-13T00:24:50.716Z,19.6
2016-09-13T00:25:50.415Z,19.57
2016-09-13T00:26:50.767Z,19.52
2016-09-13T00:27:50.486Z,19.45
2016-09-13T00:28:50.808Z,19.55
2016-09-13T00:29:50.533Z,19.49
2016-09-13T00:30:50.889Z,19.45
2016-09-13T00:31:50.875Z,19.47
2016-09-13T00:32:50.903Z,19.42
2016-09-13T00:33:50.998Z,19.47
2016-09-13T00:34:50.644Z,19.39
2016-09-13T00:35:50.359Z,19.53
2016-09-13T00:36:51.003Z,19.47
2016-09-13T00:37:51.038Z,19.45
2016-09-13T00:38:50.474Z,19.44
2016-09-13T00:39:51.074Z,19.37
2016-09-13T00:40:51.101Z,19.38
2016-09-13T00:41:50.816Z,19.34
2016-09-13T00:42:51.151Z,19.3
2016-09-13T00:43:51.171Z,19.37
2016-09-13T00:44:50.886Z,19.37
2016-09-13T00:45:51.227Z,19.37
2016-09-13T00:46:51.311Z,19.37
2016-09-13T00:47:50.971Z,19.32
2016-09-13T00:48:51.290Z,19.39
2016-09-13T00:49:51.104Z,19.29
2016-09-13T00:50:51.027Z,19.42
2016-09-13T00:51:50.774Z,19.3
2016-09-13T00:52:51.108Z,19.29
2016-09-13T00:53:51.412Z,19.32
2016-09-13T00:54:51.438Z,19.35
2016-09-13T00:55:51.171Z,19.35
2016-09-13T00:56:51.607Z,19.37
2016-09-13T00:57:51.295Z,19.35
2016-09-13T00:58:51.234Z,19.35
2016-09-13T00:59:51.595Z,19.34
2016-09-13T01:00:51.600Z,19.39
2016-09-13T01:01:51.615Z,19.27
2016-09-13T01:02:51.642Z,19.37
2016-09-13T01:03:51.688Z,19.32
2016-09-13T01:04:51.073Z,19.27
2016-09-13T01:05:51.401Z,19.41
2016-09-13T01:06:51.741Z,19.39
2016-09-13T01:07:51.505Z,19.34
2016-09-13T01:08:51.483Z,19.3
2016-09-13T01:09:51.811Z,19.38
2016-09-13T01:10:51.526Z,19.42
2016-09-13T01:11:51.239Z,19.42
2016-09-13T01:12:51.558Z,19.32
2016-09-13T01:13:51.927Z,19.32
2016-09-13T01:14:51.312Z,19.37
2016-09-13T01:15:51.332Z,19.37
2016-09-13T01:16:51.972Z,19.27
2016-09-13T01:17:51.721Z,19.34
2016-09-13T01:18:52.026Z,19.38
2016-09-13T01:19:52.085Z,19.34
2016-09-13T01:20:52.072Z,19.32
2016-09-13T01:21:51.481Z,19.34
2016-09-13T01:22:51.810Z,19.35
2016-09-13T01:23:52.165Z,19.34
2016-09-13T01:24:51.872Z,19.29
2016-09-13T01:25:51.571Z,19.3
2016-09-13T01:26:52.214Z,19.22
2016-09-13T01:27:51.940Z,19.27
2016-09-13T01:28:51.651Z,19.2
2016-09-13T01:29:52.302Z,19.11
2016-09-13T01:30:52.013Z,19.16
2016-09-13T01:31:52.366Z,19.17
2016-09-13T01:32:52.052Z,19.19
2016-09-13T01:33:52.400Z,19.09
2016-09-13T01:34:52.426Z,19.2
2016-09-13T01:35:51.812Z,19.27
2016-09-13T01:36:52.141Z,19.22
2016-09-13T01:37:51.872Z,19.19
2016-09-13T01:38:51.891Z,19.16
2016-09-13T01:39:52.531Z,19.19
2016-09-13T01:40:52.265Z,19.22
2016-09-13T01:41:52.281Z,19.22
2016-09-13T01:42:52.611Z,19.16
2016-09-13T01:43:52.646Z,19.17
2016-09-13T01:44:52.655Z,19.17
2016-09-13T01:45:52.385Z,19.22
2016-09-13T01:46:52.712Z,19.19
2016-09-13T01:47:52.737Z,19.19
2016-09-13T01:48:52.436Z,19.09
2016-09-13T01:49:52.772Z,19.15
2016-09-13T01:50:52.808Z,19.08
2016-09-13T01:51:52.531Z,19.11
2016-09-13T01:52:52.852Z,19.12
2016-09-13T01:53:52.563Z,19.16
2016-09-13T01:54:52.276Z,19.09
2016-09-13T01:55:52.611Z,19.17
2016-09-13T01:56:52.955Z,19.19
2016-09-13T01:57:52.976Z,19.05
2016-09-13T01:58:52.682Z,19.22
2016-09-13T01:59:53.038Z,19.17
2016-09-13T02:00:53.057Z,19.2
2016-09-13T02:01:52.754Z,19.16
2016-09-13T02:02:53.205Z,19.17
2016-09-13T02:03:52.808Z,19.23
2016-09-13T02:04:53.161Z,19.11
2016-09-13T02:05:52.863Z,19.19
2016-09-13T02:06:53.251Z,19.11
2016-09-13T02:07:53.286Z,19.17
2016-09-13T02:08:52.932Z,19.2
2016-09-13T02:09:53.275Z,19.12
2016-09-13T02:10:53.300Z,19.17
2016-09-13T02:11:53.009Z,19.19
2016-09-13T02:12:53.032Z,19.17
2016-09-13T02:13:53.375Z,19.11
2016-09-13T02:14:52.823Z,19.2
2016-09-13T02:15:53.144Z,19.19
2016-09-13T02:16:53.455Z,19.16
2016-09-13T02:17:53.147Z,19.11
2016-09-13T02:18:53.477Z,19.19
2016-09-13T02:19:53.528Z,19.16
2016-09-13T02:20:53.528Z,19.22
2016-09-13T02:21:53.556Z,19.22
2016-09-13T02:22:53.278Z,19.22
2016-09-13T02:23:53.608Z,19.09
2016-09-13T02:24:53.626Z,19.12
2016-09-13T02:25:53.662Z,19.09
2016-09-13T02:26:53.375Z,19.15
2016-09-13T02:27:53.086Z,19.11
2016-09-13T02:28:53.776Z,19.16
2016-09-13T02:29:53.493Z,19.16
2016-09-13T02:30:53.467Z,19.16
2016-09-13T02:31:53.789Z,19.15
2016-09-13T02:32:53.498Z,19.17
2016-09-13T02:33:53.866Z,19.2
2016-09-13T02:34:53.564Z,19.08
2016-09-13T02:35:53.589Z,19.11
2016-09-13T02:36:53.955Z,19.09
2016-09-13T02:37:53.637Z,19.19
2016-09-13T02:38:53.972Z,19.11
2016-09-13T02:39:53.992Z,19.09
2016-09-13T02:40:54.078Z,19.07
2016-09-13T02:41:54.035Z,19.07
2016-09-13T02:42:53.741Z,19
2016-09-13T02:43:54.083Z,19.08
2016-09-13T02:44:53.790Z,19.09
2016-09-13T02:45:53.822Z,18.98
2016-09-13T02:46:54.157Z,18.98
2016-09-13T02:47:54.188Z,18.96
2016-09-13T02:48:53.583Z,19.05
2016-09-13T02:49:54.325Z,18.97
2016-09-13T02:50:53.946Z,18.86
2016-09-13T02:51:54.309Z,18.83
2016-09-13T02:52:54.308Z,18.89
2016-09-13T02:53:54.018Z,18.81
2016-09-13T02:54:54.358Z,18.82
2016-09-13T02:55:54.073Z,18.79
2016-09-13T02:56:54.403Z,18.79
2016-09-13T02:57:54.117Z,18.82
2016-09-13T02:58:54.134Z,18.76
2016-09-13T02:59:54.486Z,18.79
2016-09-13T03:00:54.559Z,18.74
2016-09-13T03:01:54.212Z,18.78
2016-09-13T03:02:54.249Z,18.78
2016-09-13T03:03:54.577Z,18.76
2016-09-13T03:04:54.291Z,18.71
2016-09-13T03:05:54.633Z,18.67
2016-09-13T03:06:54.677Z,18.74
2016-09-13T03:07:54.731Z,18.66
2016-09-13T03:08:54.372Z,18.7
2016-09-13T03:09:54.712Z,18.73
2016-09-13T03:10:54.754Z,18.64
2016-09-13T03:11:54.464Z,18.57
2016-09-13T03:12:54.781Z,18.57
2016-09-13T03:13:54.863Z,18.53
2016-09-13T03:14:54.982Z,18.45
2016-09-13T03:15:54.999Z,18.53
2016-09-13T03:16:54.767Z,18.49
2016-09-13T03:17:54.701Z,18.48
2016-09-13T03:18:54.767Z,18.37
2016-09-13T03:19:55.078Z,18.45
2016-09-13T03:20:55.234Z,18.45
2016-09-13T03:21:55.158Z,18.37
2016-09-13T03:22:55.118Z,18.34
2016-09-13T03:23:54.782Z,18.28
2016-09-13T03:24:55.141Z,18.3
2016-09-13T03:25:54.790Z,18.33
2016-09-13T03:26:55.128Z,18.36
2016-09-13T03:27:54.847Z,18.31
2016-09-13T03:28:54.543Z,18.28
2016-09-13T03:29:55.208Z,18.26
2016-09-13T03:30:55.216Z,18.3
2016-09-13T03:31:55.247Z,18.31
2016-09-13T03:32:55.087Z,18.39
2016-09-13T03:33:55.019Z,18.36
2016-09-13T03:34:55.066Z,18.36
2016-09-13T03:35:55.449Z,18.41
2016-09-13T03:36:55.103Z,18.36
2016-09-13T03:37:55.086Z,18.33
2016-09-13T03:38:55.113Z,18.46
2016-09-13T03:39:55.446Z,18.49
2016-09-13T03:40:55.154Z,18.46
2016-09-13T03:41:55.173Z,18.52
2016-09-13T03:42:55.501Z,18.48
2016-09-13T03:43:54.924Z,18.51
2016-09-13T03:44:55.043Z,18.52
2016-09-13T03:45:55.268Z,18.53
2016-09-13T03:46:55.615Z,18.53
2016-09-13T03:47:55.678Z,18.57
2016-09-13T03:48:55.687Z,18.52
2016-09-13T03:49:55.414Z,18.51
2016-09-13T03:50:55.702Z,18.49
2016-09-13T03:51:55.713Z,18.46
2016-09-13T03:52:55.769Z,18.49
2016-09-13T03:53:55.776Z,18.42
2016-09-13T03:54:55.490Z,18.52
2016-09-13T03:55:55.732Z,18.42
2016-09-13T03:56:55.849Z,18.36
2016-09-13T03:57:55.648Z,18.37
2016-09-13T03:58:55.264Z,18.51
2016-09-13T03:59:55.893Z,18.43
2016-09-13T04:00:55.949Z,18.43
2016-09-13T04:01:55.648Z,18.46
2016-09-13T04:02:55.417Z,18.41
2016-09-13T04:03:56.010Z,18.37
2016-09-13T04:04:55.414Z,18.37
2016-09-13T04:05:55.445Z,18.36
2016-09-13T04:06:56.085Z,18.33
2016-09-13T04:07:55.846Z,18.3
2016-09-13T04:08:55.823Z,18.3
2016-09-13T04:09:55.835Z,18.3
2016-09-13T04:10:56.223Z,18.33
2016-09-13T04:11:55.573Z,18.31
2016-09-13T04:12:56.217Z,18.34
2016-09-13T04:13:56.258Z,18.28
2016-09-13T04:14:56.267Z,18.34
2016-09-13T04:15:55.662Z,18.18
2016-09-13T04:16:56.518Z,18.3
2016-09-13T04:17:56.031Z,18.28
2016-09-13T04:18:56.066Z,18.31
2016-09-13T04:19:56.073Z,18.3
2016-09-13T04:20:56.099Z,18.28
2016-09-13T04:21:56.436Z,18.28
2016-09-13T04:22:55.830Z,18.31
2016-09-13T04:23:56.487Z,18.27
2016-09-13T04:24:56.198Z,18.3
2016-09-13T04:25:56.537Z,18.28
2016-09-13T04:26:56.556Z,18.21
2016-09-13T04:27:56.596Z,18.21
2016-09-13T04:28:56.288Z,18.24
2016-09-13T04:29:56.616Z,18.27
2016-09-13T04:30:56.666Z,18.18
2016-09-13T04:31:56.686Z,18.24
2016-09-13T04:32:56.393Z,18.16
2016-09-13T04:33:56.401Z,18.23
2016-09-13T04:34:56.818Z,18.26
2016-09-13T04:35:56.765Z,18.13
2016-09-13T04:36:56.480Z,18.16
2016-09-13T04:37:56.511Z,18.18
2016-09-13T04:38:56.216Z,18.16
2016-09-13T04:39:56.239Z,18.15
2016-09-13T04:40:56.907Z,18.16
2016-09-13T04:41:56.284Z,18.19
2016-09-13T04:42:56.311Z,18.15
2016-09-13T04:43:56.650Z,18.16
2016-09-13T04:44:56.676Z,18.12
2016-09-13T04:45:56.693Z,18.12
2016-09-13T04:46:56.711Z,18.13
2016-09-13T04:47:57.074Z,18.15
2016-09-13T04:48:56.764Z,18.11
2016-09-13T04:49:56.469Z,18.15
2016-09-13T04:50:56.808Z,18.12
2016-09-13T04:51:57.145Z,18.18
2016-09-13T04:52:57.174Z,18.15
2016-09-13T04:53:57.259Z,18.19
2016-09-13T04:54:57.223Z,18.08
2016-09-13T04:55:57.261Z,18.11
2016-09-13T04:56:56.655Z,18.08
2016-09-13T04:57:57.300Z,18.13
2016-09-13T04:58:57.010Z,18.05
2016-09-13T04:59:57.028Z,18.09
2016-09-13T05:00:56.728Z,18.03
2016-09-13T05:01:57.369Z,18.06
2016-09-13T05:02:57.401Z,18.09
2016-09-13T05:03:57.170Z,18.05
2016-09-13T05:04:57.480Z,18.08
2016-09-13T05:05:57.457Z,18.08
2016-09-13T05:06:56.878Z,17.97
2016-09-13T05:07:57.578Z,18.06
2016-09-13T05:08:57.542Z,18.05
2016-09-13T05:09:57.563Z,17.97
2016-09-13T05:10:57.583Z,17.95
2016-09-13T05:11:57.630Z,18
2016-09-13T05:12:57.625Z,17.94
2016-09-13T05:13:57.036Z,18.06
2016-09-13T05:14:57.692Z,18.12
2016-09-13T05:15:57.819Z,18.15
2016-09-13T05:16:57.491Z,18.03
2016-09-13T05:17:57.742Z,18.13
2016-09-13T05:18:57.838Z,18.09
2016-09-13T05:19:57.488Z,18.28
2016-09-13T05:20:57.570Z,18.21
2016-09-13T05:22:29.597Z,18.3
2016-09-13T05:22:57.569Z,18.34
2016-09-13T05:23:57.686Z,18.39
2016-09-13T05:24:57.926Z,18.42
2016-09-13T05:25:57.959Z,18.51
2016-09-13T05:26:57.351Z,18.48
2016-09-13T05:27:58.049Z,18.55
2016-09-13T05:28:58.031Z,18.55
2016-09-13T05:29:58.131Z,18.61
2016-09-13T05:30:57.749Z,18.58
2016-09-13T05:31:57.770Z,18.6
2016-09-13T05:32:58.112Z,18.74
2016-09-13T05:33:57.820Z,18.66
2016-09-13T05:34:57.859Z,18.85
2016-09-13T05:35:58.173Z,18.78
2016-09-13T05:36:58.204Z,18.92
2016-09-13T05:37:57.916Z,18.92
2016-09-13T05:38:58.254Z,18.88
2016-09-13T05:39:58.274Z,18.91
2016-09-13T05:40:57.987Z,18.96
2016-09-13T05:41:58.014Z,18.98
2016-09-13T05:42:58.405Z,18.96
2016-09-13T05:43:57.745Z,19.01
2016-09-13T05:44:58.394Z,19.11
2016-09-13T05:45:58.426Z,19.15
2016-09-13T05:46:58.128Z,19.17
2016-09-13T05:47:57.836Z,19.29
2016-09-13T05:48:58.495Z,19.39
2016-09-13T05:49:58.510Z,19.38
2016-09-13T05:50:58.226Z,19.44
2016-09-13T05:51:58.610Z,19.64
2016-09-13T05:52:57.955Z,19.96
2016-09-13T05:53:58.307Z,20.46
2016-09-13T05:54:58.326Z,20.93
2016-09-13T05:55:58.351Z,21.41
2016-09-13T05:56:58.695Z,21.81
2016-09-13T05:57:58.714Z,22.18
2016-09-13T05:58:58.737Z,22.49
2016-09-13T05:59:58.763Z,22.65
2016-09-13T06:00:58.467Z,23.02
2016-09-13T06:01:58.511Z,23.4
2016-09-13T06:02:58.728Z,23.69
2016-09-13T06:03:58.876Z,23.88
2016-09-13T06:04:58.886Z,24.18
2016-09-13T06:05:58.287Z,24.24
2016-09-13T06:06:58.653Z,24.37
2016-09-13T06:07:58.976Z,24.43
2016-09-13T06:08:58.687Z,24.48
2016-09-13T06:09:59.040Z,24.69
2016-09-13T06:10:58.793Z,24.78
2016-09-13T06:11:59.076Z,24.68
2016-09-13T06:12:59.177Z,24.79
2016-09-13T06:13:59.131Z,24.85
2016-09-13T06:14:58.536Z,24.89
2016-09-13T06:15:59.211Z,25.04
2016-09-13T06:16:59.220Z,25.12
2016-09-13T06:17:58.913Z,25.11
2016-09-13T06:18:59.277Z,25.15
2016-09-13T06:19:59.288Z,25.3
2016-09-13T06:20:59.308Z,25.34
2016-09-13T06:21:59.343Z,25.56
2016-09-13T06:22:59.058Z,25.43
2016-09-13T06:23:59.426Z,25.52
2016-09-13T06:24:59.435Z,25.67
2016-09-13T06:25:59.184Z,25.7
2016-09-13T06:26:59.166Z,26.06
2016-09-13T06:27:59.205Z,26.22
2016-09-13T06:28:59.550Z,26.37
2016-09-13T06:29:58.934Z,26.42
2016-09-13T06:30:59.388Z,26.64
2016-09-13T06:31:59.619Z,26.82
2016-09-13T06:32:59.015Z,27.07
2016-09-13T06:33:59.679Z,27.18
2016-09-13T06:34:59.390Z,27.18
2016-09-13T06:35:59.894Z,27.29
2016-09-13T06:36:59.778Z,27.44
2016-09-13T06:37:59.477Z,27.41
2016-09-13T06:38:59.531Z,27.68
2016-09-13T06:39:59.868Z,27.53
2016-09-13T06:40:59.878Z,27.53
2016-09-13T06:41:59.905Z,27.48
2016-09-13T06:42:59.639Z,27.63
2016-09-13T06:43:59.965Z,27.79
2016-09-13T06:44:59.824Z,27.73
2016-09-13T06:45:59.416Z,27.67
2016-09-13T06:47:00.106Z,27.75
2016-09-13T06:48:00.078Z,27.97
2016-09-13T06:49:00.102Z,28.13
2016-09-13T06:50:00.136Z,28.09
2016-09-13T06:51:00.172Z,28.3
2016-09-13T06:52:00.213Z,28.37
2016-09-13T06:53:00.119Z,28.68
2016-09-13T06:53:59.745Z,28.72
2016-09-13T06:54:59.664Z,29.06
2016-09-13T06:55:59.993Z,29.25
2016-09-13T06:56:59.716Z,29.52
2016-09-13T06:58:00.384Z,29.61
2016-09-13T06:59:00.420Z,29.67
2016-09-13T07:00:00.120Z,29.86
2016-09-13T07:00:59.835Z,29.87
2016-09-13T07:02:00.506Z,29.87
2016-09-13T07:03:00.520Z,29.55
2016-09-13T07:04:00.547Z,29.58
2016-09-13T07:05:00.587Z,29.39
2016-09-13T07:06:00.604Z,29.35
2016-09-13T07:07:00.642Z,29
2016-09-13T07:08:00.668Z,29.12
2016-09-13T07:09:00.697Z,29.07
2016-09-13T07:10:00.421Z,28.96
2016-09-13T07:11:00.455Z,28.8
2016-09-13T07:12:00.477Z,28.96
2016-09-13T07:13:00.201Z,29.24
2016-09-13T07:14:00.216Z,29.27
2016-09-13T07:15:00.887Z,29.16
2016-09-13T07:16:00.599Z,29.39
2016-09-13T07:17:00.935Z,29.3
2016-09-13T07:18:00.982Z,29.52
2016-09-13T07:19:00.991Z,29.83
2016-09-13T07:20:01.026Z,30.1
2016-09-13T07:21:01.060Z,29.68
2016-09-13T07:22:01.091Z,29.53
2016-09-13T07:23:00.805Z,29.9
2016-09-13T07:24:01.231Z,30.48
2016-09-13T07:25:00.856Z,30.86
2016-09-13T07:26:00.954Z,30.74
2016-09-13T07:27:00.939Z,30.67
2016-09-13T07:28:01.286Z,30.38
2016-09-13T07:29:01.312Z,30.27
2016-09-13T07:30:01.368Z,30.11
2016-09-13T07:31:01.380Z,29.84
2016-09-13T07:32:01.748Z,29.57
2016-09-13T07:33:01.597Z,29.55
2016-09-13T07:34:01.781Z,29.55
2016-09-13T07:35:01.162Z,29.59
2016-09-13T07:36:01.400Z,29.59
2016-09-13T07:37:01.633Z,29.25
2016-09-13T07:38:00.958Z,28.77
2016-09-13T07:39:01.672Z,28.13
2016-09-13T07:40:01.730Z,27.63
2016-09-13T07:41:01.383Z,27.07
2016-09-13T07:42:01.686Z,26.6
2016-09-13T07:43:01.729Z,26.3
2016-09-13T07:44:01.448Z,26.01
2016-09-13T07:45:01.668Z,25.66
2016-09-13T07:46:01.489Z,25.51
2016-09-13T07:47:01.842Z,25.31
2016-09-13T07:48:01.884Z,25.19
2016-09-13T07:49:01.783Z,25.04
2016-09-13T07:50:01.296Z,24.86
2016-09-13T07:51:01.952Z,24.79
2016-09-13T07:52:01.723Z,24.61
2016-09-13T07:53:01.999Z,24.62
2016-09-13T07:54:01.741Z,24.55
2016-09-13T07:55:02.073Z,24.47
2016-09-13T07:56:02.122Z,24.51
2016-09-13T07:57:01.882Z,24.41
2016-09-13T07:58:01.838Z,24.44
2016-09-13T07:59:02.171Z,24.48
2016-09-13T08:00:01.913Z,24.41
2016-09-13T08:01:01.918Z,24.53
2016-09-13T08:02:01.935Z,24.47
2016-09-13T08:03:02.296Z,24.4
2016-09-13T08:04:02.011Z,24.46
2016-09-13T08:05:02.354Z,24.63
2016-09-13T08:06:01.803Z,24.71
2016-09-13T08:07:02.442Z,24.74
2016-09-13T08:08:02.418Z,24.96
2016-09-13T08:09:01.879Z,25.07
2016-09-13T08:10:02.503Z,25.16
2016-09-13T08:11:02.500Z,25.14
2016-09-13T08:12:02.214Z,25.18
2016-09-13T08:13:02.256Z,25.06
2016-09-13T08:14:02.293Z,25.07
2016-09-13T08:15:01.992Z,25.15
2016-09-13T08:16:02.650Z,25.3
2016-09-13T08:17:02.370Z,25.3
2016-09-13T08:18:02.385Z,25.4
2016-09-13T08:19:02.754Z,25.39
2016-09-13T08:20:02.765Z,25.49
2016-09-13T08:21:02.160Z,25.4
2016-09-13T08:22:02.811Z,25.51
2016-09-13T08:23:02.841Z,25.49
2016-09-13T08:24:02.558Z,25.63
2016-09-13T08:25:02.582Z,25.73
2016-09-13T08:26:02.925Z,25.73
2016-09-13T08:27:02.642Z,25.78
2016-09-13T08:28:02.661Z,25.91
2016-09-13T08:29:02.706Z,25.86
2016-09-13T08:30:02.731Z,25.98
2016-09-13T08:31:03.069Z,26.08
2016-09-13T08:32:03.091Z,26.08
2016-09-13T08:33:03.122Z,26.13
2016-09-13T08:34:03.487Z,26.06
2016-09-13T08:35:03.258Z,26.18
2016-09-13T08:36:02.569Z,26.07
2016-09-13T08:37:35.221Z,26.23
2016-09-13T08:38:03.262Z,26.16
2016-09-13T08:39:03.345Z,26.23
2016-09-13T08:40:03.022Z,26.36
2016-09-13T08:41:03.055Z,26.37
2016-09-13T08:42:03.064Z,26.37
2016-09-13T08:43:03.094Z,26.45
2016-09-13T08:44:03.178Z,26.59
2016-09-13T08:45:03.473Z,26.6
2016-09-13T08:46:03.259Z,26.68
2016-09-13T08:47:03.202Z,26.73
2016-09-13T08:48:03.604Z,26.86
2016-09-13T08:49:03.279Z,26.98
2016-09-13T08:50:02.974Z,26.97
2016-09-13T08:51:03.625Z,27.04
2016-09-13T08:52:03.647Z,27.18
2016-09-13T08:53:03.455Z,27.19
2016-09-13T08:54:03.714Z,27.28
2016-09-13T08:55:03.487Z,27.33
2016-09-13T08:56:03.794Z,27.41
2016-09-13T08:57:03.557Z,27.45
2016-09-13T08:58:03.548Z,27.47
2016-09-13T08:59:03.890Z,27.45
2016-09-13T09:00:03.888Z,27.66
2016-09-13T09:01:03.345Z,27.71
2016-09-13T09:02:03.622Z,27.75
2016-09-13T09:03:03.757Z,27.76
2016-09-13T09:04:03.682Z,27.82
2016-09-13T09:05:03.456Z,27.86
2016-09-13T09:06:04.062Z,28.01
2016-09-13T09:07:04.079Z,28.08
2016-09-13T09:08:03.844Z,28.1
2016-09-13T09:09:04.204Z,28.15
2016-09-13T09:10:03.855Z,28.04
2016-09-13T09:11:03.875Z,28.16
2016-09-13T09:12:04.228Z,28.22
2016-09-13T09:13:03.635Z,28.33
2016-09-13T09:14:03.971Z,28.34
2016-09-13T09:15:03.986Z,28.31
2016-09-13T09:16:04.139Z,28.38
2016-09-13T09:17:04.584Z,28.4
2016-09-13T09:18:04.415Z,28.55
2016-09-13T09:19:03.798Z,28.62
2016-09-13T09:20:04.455Z,28.67
2016-09-13T09:21:04.165Z,28.75
2016-09-13T09:22:04.192Z,28.82
2016-09-13T09:23:04.547Z,28.84
2016-09-13T09:24:04.760Z,28.89
2016-09-13T09:25:04.746Z,28.97
2016-09-13T09:26:04.499Z,29.05
2016-09-13T09:27:04.025Z,29.03
2016-09-13T09:28:04.444Z,29.13
2016-09-13T09:29:04.766Z,29.13
2016-09-13T09:30:04.480Z,29.24
2016-09-13T09:31:04.506Z,29.21
2016-09-13T09:32:04.800Z,29.39
2016-09-13T09:33:04.204Z,29.42
2016-09-13T09:34:04.879Z,29.43
2016-09-13T09:35:04.907Z,29.46
2016-09-13T09:36:04.605Z,29.5
2016-09-13T09:37:04.638Z,29.58
2016-09-13T09:38:05.057Z,29.67
2016-09-13T09:39:36.674Z,29.65
2016-09-13T09:40:04.821Z,29.62
2016-09-13T09:41:04.757Z,29.65
2016-09-13T09:42:05.098Z,29.68
2016-09-13T09:43:05.125Z,29.65
2016-09-13T09:44:05.144Z,29.74
2016-09-13T09:45:05.180Z,29.77
2016-09-13T09:46:05.290Z,29.74
2016-09-13T09:47:05.249Z,29.76
2016-09-13T09:48:05.328Z,29.74
2016-09-13T09:49:04.999Z,29.74
2016-09-13T09:50:05.342Z,29.73
2016-09-13T09:51:05.367Z,29.76
2016-09-13T09:52:05.067Z,29.79
2016-09-13T09:53:05.104Z,29.73
2016-09-13T09:54:05.131Z,29.84
2016-09-13T09:55:05.464Z,29.84
2016-09-13T09:56:05.521Z,29.89
2016-09-13T09:57:05.540Z,30.08
2016-09-13T09:58:05.243Z,30.03
2016-09-13T09:59:05.581Z,30.03
2016-09-13T10:00:05.624Z,30.08
2016-09-13T10:01:05.724Z,30.08
2016-09-13T10:02:05.677Z,30.08
2016-09-13T10:03:05.392Z,30.11
2016-09-13T10:04:05.742Z,30.16
2016-09-13T10:05:05.599Z,30.14
2016-09-13T10:06:05.167Z,30.16
2016-09-13T10:07:05.502Z,30.14
2016-09-13T10:08:05.949Z,30.18
2016-09-13T10:09:05.567Z,30.11
2016-09-13T10:10:05.649Z,30.26
2016-09-13T10:11:05.637Z,30.27
2016-09-13T10:12:05.675Z,30.27
2016-09-13T10:13:06.005Z,30.26
2016-09-13T10:14:06.029Z,30.2
2016-09-13T10:15:06.061Z,30.33
2016-09-13T10:16:05.768Z,30.43
2016-09-13T10:17:05.818Z,30.4
2016-09-13T10:18:06.167Z,30.49
2016-09-13T10:19:05.859Z,30.51
2016-09-13T10:20:05.900Z,30.46
2016-09-13T10:21:05.921Z,30.48
2016-09-13T10:22:05.968Z,30.52
2016-09-13T10:23:05.988Z,30.61
2016-09-13T10:24:06.025Z,30.58
2016-09-13T10:25:06.377Z,30.74
2016-09-13T10:26:06.074Z,30.65
2016-09-13T10:27:06.221Z,30.62
2016-09-13T10:28:06.448Z,30.61
2016-09-13T10:29:06.562Z,30.74
2016-09-13T10:30:06.196Z,30.7
2016-09-13T10:31:06.537Z,30.73
2016-09-13T10:32:06.571Z,30.73
2016-09-13T10:33:06.596Z,30.81
2016-09-13T10:34:06.636Z,30.91
2016-09-13T10:35:06.346Z,30.85
2016-09-13T10:36:06.369Z,30.95
2016-09-13T10:37:06.738Z,30.86
2016-09-13T10:38:06.119Z,30.83
2016-09-13T10:39:06.778Z,30.95
2016-09-13T10:40:06.811Z,31.05
2016-09-13T10:41:06.838Z,31.07
2016-09-13T10:42:06.891Z,31.13
2016-09-13T10:43:06.583Z,31.14
2016-09-13T10:44:06.938Z,31.14
2016-09-13T10:45:06.968Z,31.1
2016-09-13T10:46:06.987Z,31.1
2016-09-13T10:47:07.094Z,31.11
2016-09-13T10:48:07.053Z,31.17
2016-09-13T10:49:06.769Z,31.18
2016-09-13T10:50:07.102Z,31.17
2016-09-13T10:51:07.131Z,31.25
2016-09-13T10:52:07.174Z,31.22
2016-09-13T10:53:07.223Z,31.28
2016-09-13T10:54:06.913Z,31.26
2016-09-13T10:55:07.249Z,31.36
2016-09-13T10:56:07.285Z,31.35
2016-09-13T10:57:07.331Z,31.42
2016-09-13T10:58:07.351Z,31.47
2016-09-13T10:59:07.576Z,31.32
2016-09-13T11:00:07.413Z,31.33
2016-09-13T11:01:07.435Z,31.33
2016-09-13T11:02:07.470Z,31.32
2016-09-13T11:03:07.489Z,31.32
2016-09-13T11:04:07.527Z,31.42
2016-09-13T11:05:07.551Z,31.48
2016-09-13T11:06:07.750Z,31.42
2016-09-13T11:07:07.735Z,31.47
2016-09-13T11:08:07.577Z,31.48
2016-09-13T11:09:07.831Z,31.41
2016-09-13T11:10:07.874Z,31.51
2016-09-13T11:11:07.856Z,31.54
2016-09-13T11:12:07.577Z,31.57
2016-09-13T11:13:07.861Z,31.57
2016-09-13T11:14:07.612Z,31.59
2016-09-13T11:15:07.617Z,31.72
2016-09-13T11:16:07.892Z,31.64
2016-09-13T11:17:07.944Z,31.69
2016-09-13T11:18:08.046Z,31.7
2016-09-13T11:19:07.366Z,31.72
2016-09-13T11:20:08.028Z,31.78
2016-09-13T11:21:07.729Z,31.77
2016-09-13T11:22:08.125Z,31.78
2016-09-13T11:23:08.105Z,31.82
2016-09-13T11:24:07.829Z,31.69
2016-09-13T11:25:08.171Z,31.67
2016-09-13T11:26:07.890Z,31.59
2016-09-13T11:27:08.311Z,31.7
2016-09-13T11:28:08.263Z,31.64
2016-09-13T11:29:08.339Z,31.74
2016-09-13T11:30:08.340Z,31.89
2016-09-13T11:31:08.356Z,31.95
2016-09-13T11:32:08.059Z,32
2016-09-13T11:33:08.422Z,32
2016-09-13T11:34:08.451Z,31.97
2016-09-13T11:35:08.491Z,31.93
2016-09-13T11:36:08.468Z,32
2016-09-13T11:37:08.231Z,31.98
2016-09-13T11:38:08.592Z,31.98
2016-09-13T11:39:08.619Z,32.07
2016-09-13T11:40:08.621Z,32.01
2016-09-13T11:41:08.650Z,32.02
2016-09-13T11:42:08.689Z,32.05
2016-09-13T11:43:08.716Z,32.05
2016-09-13T11:44:08.435Z,31.97
2016-09-13T11:45:08.778Z,32
2016-09-13T11:46:08.499Z,32.08
2016-09-13T11:47:08.850Z,32.15
2016-09-13T11:48:08.556Z,32.19
2016-09-13T11:49:08.887Z,32.17
2016-09-13T11:50:08.940Z,32.27
2016-09-13T11:51:08.956Z,32.24
2016-09-13T11:52:08.991Z,32.27
2016-09-13T11:53:09.002Z,32.29
2016-09-13T11:54:09.071Z,32.11
2016-09-13T11:55:09.089Z,32.15
2016-09-13T11:56:09.095Z,32.2
2016-09-13T11:57:09.142Z,32.23
2016-09-13T11:58:08.855Z,32.23
2016-09-13T11:59:08.891Z,32.19
2016-09-13T12:00:09.254Z,32.11
2016-09-13T12:01:08.967Z,32.08
2016-09-13T12:02:09.297Z,32.16
2016-09-13T12:03:09.314Z,32.2
2016-09-13T12:04:09.367Z,32.16
2016-09-13T12:05:09.391Z,32.11
2016-09-13T12:06:09.487Z,32.11
2016-09-13T12:07:09.503Z,32.15
2016-09-13T12:08:09.475Z,32.07
2016-09-13T12:09:09.185Z,32.17
2016-09-13T12:10:09.535Z,32.27
2016-09-13T12:11:09.556Z,32.24
2016-09-13T12:12:09.590Z,32.19
2016-09-13T12:13:09.634Z,32.26
2016-09-13T12:14:09.662Z,32.3
2016-09-13T12:15:09.695Z,32.29
2016-09-13T12:16:09.821Z,32.29
2016-09-13T12:17:09.502Z,32.27
2016-09-13T12:18:09.788Z,32.3
2016-09-13T12:19:09.886Z,32.23
2016-09-13T12:20:09.843Z,32.29
2016-09-13T12:21:09.874Z,32.27
2016-09-13T12:22:09.909Z,32.31
2016-09-13T12:23:09.942Z,32.24
2016-09-13T12:24:09.971Z,32.31
2016-09-13T12:25:09.751Z,32.3
2016-09-13T12:26:09.723Z,32.31
2016-09-13T12:27:09.738Z,32.2
2016-09-13T12:28:10.099Z,32.29
2016-09-13T12:29:09.802Z,32.31
2016-09-13T12:30:09.865Z,32.34
2016-09-13T12:31:10.166Z,32.2
2016-09-13T12:32:10.230Z,32.37
2016-09-13T12:33:10.232Z,32.27
2016-09-13T12:34:10.297Z,32.24
2016-09-13T12:35:10.298Z,32.34
2016-09-13T12:36:10.091Z,32.23
2016-09-13T12:37:10.068Z,32.24
2016-09-13T12:38:10.409Z,32.29
2016-09-13T12:39:10.443Z,32.24
2016-09-13T12:40:42.442Z,32.27
2016-09-13T12:41:10.494Z,32.27
2016-09-13T12:42:10.199Z,32.29
2016-09-13T12:43:10.219Z,32.34
2016-09-13T12:44:10.570Z,32.37
2016-09-13T12:45:10.295Z,32.42
2016-09-13T12:46:10.638Z,32.38
2016-09-13T12:47:10.720Z,32.46
2016-09-13T12:48:10.700Z,32.53
2016-09-13T12:49:10.722Z,32.54
2016-09-13T12:50:10.758Z,32.44
2016-09-13T12:51:10.788Z,32.49
2016-09-13T12:52:10.510Z,32.37
2016-09-13T12:53:10.856Z,32.34
2016-09-13T12:54:42.568Z,32.49
2016-09-13T12:55:10.911Z,32.49
2016-09-13T12:56:10.640Z,32.49